sensor_id;sensor_type;location;lat;lon;timestamp;noise_LAeq;noise_LA_min;noise_LA_max;noise_LA01;noise_LA95
68599;Laerm;18038;50.166;18.908;2023-04-25T00:00:29;48.54;46.39;58.31;;
68599;Laerm;18038;50.166;18.908;2023-04-25T00:03:35;47.59;46.15;51.56;;
68599;Laerm;18038;50.166;18.908;2023-04-25T00:06:43;47.57;46.31;51.15;;
68599;Laerm;18038;50.166;18.908;2023-04-25T00:09:49;47.91;46.42;56.70;;
68599;Laerm;18038;50.166;18.908;2023-04-25T00:12:56;48.17;46.25;56.20;;
68599;Laerm;18038;50.166;18.908;2023-04-25T00:16:09;47.71;46.40;51.69;;
68599;Laerm;18038;50.166;18.908;2023-04-25T00:19:19;49.16;46.89;58.81;;
68599;Laerm;18038;50.166;18.908;2023-04-25T00:22:32;48.44;46.86;54.47;;
68599;Laerm;18038;50.166;18.908;2023-04-25T00:25:40;48.48;46.69;61.86;;
68599;Laerm;18038;50.166;18.908;2023-04-25T00:28:48;47.85;46.52;52.78;;
68599;Laerm;18038;50.166;18.908;2023-04-25T00:31:57;47.82;46.53;51.77;;
68599;Laerm;18038;50.166;18.908;2023-04-25T00:35:10;48.14;46.32;58.10;;
68599;Laerm;18038;50.166;18.908;2023-04-25T00:38:18;47.96;46.52;53.83;;
68599;Laerm;18038;50.166;18.908;2023-04-25T00:41:26;48.34;46.44;58.84;;
68599;Laerm;18038;50.166;18.908;2023-04-25T00:44:45;47.86;46.29;55.01;;
68599;Laerm;18038;50.166;18.908;2023-04-25T00:47:55;47.67;46.28;51.31;;
68599;Laerm;18038;50.166;18.908;2023-04-25T00:51:02;52.34;46.40;70.26;;
68599;Laerm;18038;50.166;18.908;2023-04-25T00:54:09;47.64;46.35;61.62;;
68599;Laerm;18038;50.166;18.908;2023-04-25T00:57:17;47.69;46.48;51.46;;
68599;Laerm;18038;50.166;18.908;2023-04-25T01:00:23;47.62;46.23;53.55;;
68599;Laerm;18038;50.166;18.908;2023-04-25T01:03:34;47.44;46.22;50.36;;
68599;Laerm;18038;50.166;18.908;2023-04-25T01:06:44;47.53;46.04;50.89;;
68599;Laerm;18038;50.166;18.908;2023-04-25T01:09:52;47.97;46.40;63.12;;
68599;Laerm;18038;50.166;18.908;2023-04-25T01:12:58;47.59;46.27;56.75;;
68599;Laerm;18038;50.166;18.908;2023-04-25T01:16:09;49.20;46.29;59.45;;
68599;Laerm;18038;50.166;18.908;2023-04-25T01:19:19;48.49;46.58;57.17;;
68599;Laerm;18038;50.166;18.908;2023-04-25T01:22:31;49.59;46.70;61.18;;
68599;Laerm;18038;50.166;18.908;2023-04-25T01:25:39;48.01;46.74;51.87;;
68599;Laerm;18038;50.166;18.908;2023-04-25T01:28:48;48.65;46.77;58.56;;
68599;Laerm;18038;50.166;18.908;2023-04-25T01:31:57;49.11;46.69;58.02;;
68599;Laerm;18038;50.166;18.908;2023-04-25T01:35:07;48.51;46.64;57.26;;
68599;Laerm;18038;50.166;18.908;2023-04-25T01:38:17;48.64;46.65;58.18;;
68599;Laerm;18038;50.166;18.908;2023-04-25T01:41:24;49.35;46.74;60.21;;
68599;Laerm;18038;50.166;18.908;2023-04-25T01:44:30;47.90;46.45;50.52;;
68599;Laerm;18038;50.166;18.908;2023-04-25T01:47:38;48.40;46.67;57.92;;
68599;Laerm;18038;50.166;18.908;2023-04-25T01:50:48;50.34;46.62;65.98;;
68599;Laerm;18038;50.166;18.908;2023-04-25T01:53:58;49.06;46.77;60.61;;
68599;Laerm;18038;50.166;18.908;2023-04-25T01:57:04;49.09;46.72;57.61;;
68599;Laerm;18038;50.166;18.908;2023-04-25T02:00:13;50.76;46.83;63.67;;
68599;Laerm;18038;50.166;18.908;2023-04-25T02:03:36;48.63;46.67;59.31;;
68599;Laerm;18038;50.166;18.908;2023-04-25T02:06:52;49.03;46.86;57.10;;
68599;Laerm;18038;50.166;18.908;2023-04-25T02:10:08;48.96;46.95;65.22;;
68599;Laerm;18038;50.166;18.908;2023-04-25T02:13:35;48.93;47.03;58.57;;
68599;Laerm;18038;50.166;18.908;2023-04-25T02:17:07;49.58;47.08;59.39;;
68599;Laerm;18038;50.166;18.908;2023-04-25T02:20:14;51.12;47.24;63.30;;
68599;Laerm;18038;50.166;18.908;2023-04-25T02:23:33;49.42;47.13;58.87;;
68599;Laerm;18038;50.166;18.908;2023-04-25T02:26:43;49.25;47.21;57.19;;
68599;Laerm;18038;50.166;18.908;2023-04-25T02:29:53;48.85;47.26;63.96;;
68599;Laerm;18038;50.166;18.908;2023-04-25T02:33:00;49.66;47.21;58.55;;
68599;Laerm;18038;50.166;18.908;2023-04-25T02:36:12;50.16;47.28;63.53;;
68599;Laerm;18038;50.166;18.908;2023-04-25T02:39:19;50.04;47.29;59.57;;
68599;Laerm;18038;50.166;18.908;2023-04-25T02:42:30;50.67;47.23;60.47;;
68599;Laerm;18038;50.166;18.908;2023-04-25T02:45:37;49.72;47.04;58.10;;
68599;Laerm;18038;50.166;18.908;2023-04-25T02:48:45;49.99;47.02;59.36;;
68599;Laerm;18038;50.166;18.908;2023-04-25T02:51:51;49.39;46.88;57.41;;
68599;Laerm;18038;50.166;18.908;2023-04-25T02:54:57;51.33;46.72;60.19;;
68599;Laerm;18038;50.166;18.908;2023-04-25T02:58:08;51.05;46.93;60.56;;
68599;Laerm;18038;50.166;18.908;2023-04-25T03:01:23;53.38;47.28;63.55;;
68599;Laerm;18038;50.166;18.908;2023-04-25T03:04:30;52.36;47.23;62.80;;
68599;Laerm;18038;50.166;18.908;2023-04-25T03:07:39;53.23;47.24;63.20;;
68599;Laerm;18038;50.166;18.908;2023-04-25T03:10:47;50.12;46.81;61.21;;
68599;Laerm;18038;50.166;18.908;2023-04-25T03:13:59;51.84;46.95;64.89;;
68599;Laerm;18038;50.166;18.908;2023-04-25T03:17:06;53.31;47.49;68.21;;
68599;Laerm;18038;50.166;18.908;2023-04-25T03:20:12;52.34;47.22;62.98;;
68599;Laerm;18038;50.166;18.908;2023-04-25T03:23:19;53.48;47.06;65.47;;
68599;Laerm;18038;50.166;18.908;2023-04-25T03:26:29;56.48;47.41;69.78;;
68599;Laerm;18038;50.166;18.908;2023-04-25T03:29:38;53.37;47.50;67.69;;
68599;Laerm;18038;50.166;18.908;2023-04-25T03:32:45;53.03;47.31;61.65;;
68599;Laerm;18038;50.166;18.908;2023-04-25T03:35:53;53.99;47.77;63.03;;
68599;Laerm;18038;50.166;18.908;2023-04-25T03:38:59;50.74;47.34;61.50;;
68599;Laerm;18038;50.166;18.908;2023-04-25T03:42:08;52.71;47.57;60.60;;
68599;Laerm;18038;50.166;18.908;2023-04-25T03:45:16;52.25;47.70;60.71;;
68599;Laerm;18038;50.166;18.908;2023-04-25T03:48:25;51.44;47.34;67.18;;
68599;Laerm;18038;50.166;18.908;2023-04-25T03:51:31;52.62;47.61;61.98;;
68599;Laerm;18038;50.166;18.908;2023-04-25T03:54:38;52.29;47.53;59.65;;
68599;Laerm;18038;50.166;18.908;2023-04-25T03:57:48;52.11;47.36;60.78;;
68599;Laerm;18038;50.166;18.908;2023-04-25T04:00:58;51.57;47.20;62.06;;
68599;Laerm;18038;50.166;18.908;2023-04-25T04:04:08;52.24;47.08;62.71;;
68599;Laerm;18038;50.166;18.908;2023-04-25T04:07:15;52.03;47.21;59.94;;
68599;Laerm;18038;50.166;18.908;2023-04-25T04:10:25;51.41;47.52;60.90;;
68599;Laerm;18038;50.166;18.908;2023-04-25T04:13:33;52.71;47.83;72.53;;
68599;Laerm;18038;50.166;18.908;2023-04-25T04:16:41;53.08;47.77;65.16;;
68599;Laerm;18038;50.166;18.908;2023-04-25T04:19:49;51.49;47.46;58.98;;
68599;Laerm;18038;50.166;18.908;2023-04-25T04:22:55;52.88;47.87;65.87;;
68599;Laerm;18038;50.166;18.908;2023-04-25T04:26:03;54.61;47.75;67.39;;
68599;Laerm;18038;50.166;18.908;2023-04-25T04:29:19;52.83;47.77;63.27;;
68599;Laerm;18038;50.166;18.908;2023-04-25T04:32:44;52.85;47.53;60.21;;
68599;Laerm;18038;50.166;18.908;2023-04-25T04:35:52;53.24;47.73;59.04;;
68599;Laerm;18038;50.166;18.908;2023-04-25T04:39:00;53.28;47.70;63.04;;
68599;Laerm;18038;50.166;18.908;2023-04-25T04:42:19;53.85;48.13;62.82;;
68599;Laerm;18038;50.166;18.908;2023-04-25T04:45:37;53.67;47.47;60.64;;
68599;Laerm;18038;50.166;18.908;2023-04-25T04:49:08;53.87;48.18;63.91;;
68599;Laerm;18038;50.166;18.908;2023-04-25T04:52:51;53.14;47.55;60.97;;
68599;Laerm;18038;50.166;18.908;2023-04-25T04:56:18;53.38;47.64;61.77;;
68599;Laerm;18038;50.166;18.908;2023-04-25T04:59:47;53.81;48.56;60.38;;
68599;Laerm;18038;50.166;18.908;2023-04-25T05:03:18;52.88;47.78;60.63;;
68599;Laerm;18038;50.166;18.908;2023-04-25T05:06:48;54.02;48.02;60.71;;
68599;Laerm;18038;50.166;18.908;2023-04-25T05:10:08;53.32;47.74;60.82;;
68599;Laerm;18038;50.166;18.908;2023-04-25T05:13:33;54.31;47.81;60.90;;
68599;Laerm;18038;50.166;18.908;2023-04-25T05:17:14;53.22;48.01;63.22;;
68599;Laerm;18038;50.166;18.908;2023-04-25T05:20:46;53.63;48.61;60.00;;
68599;Laerm;18038;50.166;18.908;2023-04-25T05:24:05;53.24;48.05;64.16;;
68599;Laerm;18038;50.166;18.908;2023-04-25T05:27:30;53.29;48.35;63.62;;
68599;Laerm;18038;50.166;18.908;2023-04-25T05:31:05;53.95;48.22;60.25;;
68599;Laerm;18038;50.166;18.908;2023-04-25T05:34:23;53.03;47.93;60.23;;
68599;Laerm;18038;50.166;18.908;2023-04-25T05:37:32;52.49;47.99;58.82;;
68599;Laerm;18038;50.166;18.908;2023-04-25T05:40:49;53.97;48.86;59.14;;
68599;Laerm;18038;50.166;18.908;2023-04-25T05:44:27;55.20;48.06;63.65;;
68599;Laerm;18038;50.166;18.908;2023-04-25T05:47:50;57.18;49.26;81.38;;
68599;Laerm;18038;50.166;18.908;2023-04-25T05:51:12;54.55;49.05;64.99;;
68599;Laerm;18038;50.166;18.908;2023-04-25T05:54:27;54.13;48.72;61.64;;
68599;Laerm;18038;50.166;18.908;2023-04-25T05:57:35;53.29;48.46;61.50;;
68599;Laerm;18038;50.166;18.908;2023-04-25T06:00:45;55.26;48.56;66.57;;
68599;Laerm;18038;50.166;18.908;2023-04-25T06:03:52;53.47;48.34;61.52;;
68599;Laerm;18038;50.166;18.908;2023-04-25T06:07:00;54.03;48.52;64.79;;
68599;Laerm;18038;50.166;18.908;2023-04-25T06:10:09;53.21;48.17;59.50;;
68599;Laerm;18038;50.166;18.908;2023-04-25T06:13:21;53.59;48.20;62.66;;
68599;Laerm;18038;50.166;18.908;2023-04-25T06:16:35;53.81;48.43;61.67;;
68599;Laerm;18038;50.166;18.908;2023-04-25T06:19:42;55.06;47.81;71.37;;
68599;Laerm;18038;50.166;18.908;2023-04-25T06:22:48;52.94;47.64;62.18;;
68599;Laerm;18038;50.166;18.908;2023-04-25T06:25:57;52.73;48.03;61.19;;
68599;Laerm;18038;50.166;18.908;2023-04-25T06:29:08;53.06;47.74;61.18;;
68599;Laerm;18038;50.166;18.908;2023-04-25T06:32:15;53.63;48.27;59.90;;
68599;Laerm;18038;50.166;18.908;2023-04-25T06:35:22;54.68;49.62;65.23;;
68599;Laerm;18038;50.166;18.908;2023-04-25T06:38:29;53.53;48.61;61.31;;
68599;Laerm;18038;50.166;18.908;2023-04-25T06:41:35;52.92;48.00;61.50;;
68599;Laerm;18038;50.166;18.908;2023-04-25T06:45:15;53.64;47.93;61.92;;
68599;Laerm;18038;50.166;18.908;2023-04-25T06:48:21;53.89;47.73;63.02;;
68599;Laerm;18038;50.166;18.908;2023-04-25T06:51:29;53.55;47.78;61.22;;
68599;Laerm;18038;50.166;18.908;2023-04-25T06:54:35;53.55;48.10;66.45;;
68599;Laerm;18038;50.166;18.908;2023-04-25T06:57:55;52.11;47.63;60.03;;
68599;Laerm;18038;50.166;18.908;2023-04-25T07:01:38;52.70;47.81;59.35;;
68599;Laerm;18038;50.166;18.908;2023-04-25T07:04:54;52.30;47.87;58.54;;
68599;Laerm;18038;50.166;18.908;2023-04-25T07:08:03;53.76;47.70;65.74;;
68599;Laerm;18038;50.166;18.908;2023-04-25T07:11:10;52.60;47.50;61.01;;
68599;Laerm;18038;50.166;18.908;2023-04-25T07:14:20;51.65;47.64;57.80;;
68599;Laerm;18038;50.166;18.908;2023-04-25T07:17:33;52.54;47.48;61.02;;
68599;Laerm;18038;50.166;18.908;2023-04-25T07:20:51;52.62;47.88;60.69;;
68599;Laerm;18038;50.166;18.908;2023-04-25T07:23:59;52.76;47.33;76.07;;
68599;Laerm;18038;50.166;18.908;2023-04-25T07:27:13;52.82;47.75;63.47;;
68599;Laerm;18038;50.166;18.908;2023-04-25T07:30:31;52.27;47.27;62.58;;
68599;Laerm;18038;50.166;18.908;2023-04-25T07:33:41;52.23;47.52;59.80;;
68599;Laerm;18038;50.166;18.908;2023-04-25T07:36:48;52.11;47.38;62.19;;
68599;Laerm;18038;50.166;18.908;2023-04-25T07:39:54;51.71;47.36;61.43;;
68599;Laerm;18038;50.166;18.908;2023-04-25T07:43:01;51.94;47.28;60.06;;
68599;Laerm;18038;50.166;18.908;2023-04-25T07:46:19;57.13;47.51;84.09;;
68599;Laerm;18038;50.166;18.908;2023-04-25T07:49:31;51.90;47.44;58.85;;
68599;Laerm;18038;50.166;18.908;2023-04-25T07:52:39;51.94;47.49;60.23;;
68599;Laerm;18038;50.166;18.908;2023-04-25T07:56:04;52.75;47.47;61.68;;
68599;Laerm;18038;50.166;18.908;2023-04-25T07:59:13;52.68;47.45;79.98;;
68599;Laerm;18038;50.166;18.908;2023-04-25T08:02:21;51.26;47.09;60.54;;
68599;Laerm;18038;50.166;18.908;2023-04-25T08:05:31;52.31;47.36;60.51;;
68599;Laerm;18038;50.166;18.908;2023-04-25T08:08:42;52.15;47.17;58.87;;
68599;Laerm;18038;50.166;18.908;2023-04-25T08:11:52;51.30;47.06;59.19;;
68599;Laerm;18038;50.166;18.908;2023-04-25T08:15:06;52.15;46.87;61.61;;
68599;Laerm;18038;50.166;18.908;2023-04-25T08:18:15;52.74;47.20;61.99;;
68599;Laerm;18038;50.166;18.908;2023-04-25T08:21:26;52.80;47.46;62.03;;
68599;Laerm;18038;50.166;18.908;2023-04-25T08:24:36;52.99;46.98;64.19;;
68599;Laerm;18038;50.166;18.908;2023-04-25T08:27:47;52.96;47.10;63.52;;
68599;Laerm;18038;50.166;18.908;2023-04-25T08:30:56;51.95;47.07;63.38;;
68599;Laerm;18038;50.166;18.908;2023-04-25T08:34:10;52.31;47.01;60.37;;
68599;Laerm;18038;50.166;18.908;2023-04-25T08:37:28;52.38;47.29;61.05;;
68599;Laerm;18038;50.166;18.908;2023-04-25T08:40:44;52.70;47.22;59.87;;
68599;Laerm;18038;50.166;18.908;2023-04-25T08:43:56;52.84;47.08;63.10;;
68599;Laerm;18038;50.166;18.908;2023-04-25T08:47:08;53.02;46.99;66.28;;
68599;Laerm;18038;50.166;18.908;2023-04-25T08:50:23;52.32;47.09;64.22;;
68599;Laerm;18038;50.166;18.908;2023-04-25T08:53:37;53.67;47.03;66.23;;
68599;Laerm;18038;50.166;18.908;2023-04-25T08:56:48;52.99;47.09;69.08;;
68599;Laerm;18038;50.166;18.908;2023-04-25T08:59:58;52.30;47.19;61.14;;
68599;Laerm;18038;50.166;18.908;2023-04-25T09:03:07;54.23;47.39;69.13;;
68599;Laerm;18038;50.166;18.908;2023-04-25T09:06:16;54.19;47.28;67.79;;
68599;Laerm;18038;50.166;18.908;2023-04-25T09:09:27;52.28;47.24;60.11;;
68599;Laerm;18038;50.166;18.908;2023-04-25T09:12:37;51.61;46.99;60.48;;
68599;Laerm;18038;50.166;18.908;2023-04-25T09:15:50;51.57;46.73;59.26;;
68599;Laerm;18038;50.166;18.908;2023-04-25T09:19:22;52.50;47.12;62.63;;
68599;Laerm;18038;50.166;18.908;2023-04-25T09:23:01;51.71;46.35;63.16;;
68599;Laerm;18038;50.166;18.908;2023-04-25T09:26:15;53.43;46.80;65.03;;
68599;Laerm;18038;50.166;18.908;2023-04-25T09:29:29;52.84;47.38;65.88;;
68599;Laerm;18038;50.166;18.908;2023-04-25T09:32:38;51.84;47.29;60.70;;
68599;Laerm;18038;50.166;18.908;2023-04-25T09:35:45;52.10;47.24;64.56;;
68599;Laerm;18038;50.166;18.908;2023-04-25T09:39:20;51.81;46.86;60.15;;
68599;Laerm;18038;50.166;18.908;2023-04-25T09:42:41;53.85;47.40;66.53;;
68599;Laerm;18038;50.166;18.908;2023-04-25T09:45:51;53.53;47.16;66.65;;
68599;Laerm;18038;50.166;18.908;2023-04-25T09:49:07;53.13;46.77;67.10;;
68599;Laerm;18038;50.166;18.908;2023-04-25T09:52:24;52.61;47.84;59.06;;
68599;Laerm;18038;50.166;18.908;2023-04-25T09:55:39;51.56;47.22;59.83;;
68599;Laerm;18038;50.166;18.908;2023-04-25T09:58:53;52.31;46.99;61.22;;
68599;Laerm;18038;50.166;18.908;2023-04-25T10:01:59;53.61;47.59;65.89;;
68599;Laerm;18038;50.166;18.908;2023-04-25T10:05:12;54.89;48.67;62.84;;
68599;Laerm;18038;50.166;18.908;2023-04-25T10:08:22;52.78;47.36;66.83;;
68599;Laerm;18038;50.166;18.908;2023-04-25T10:11:31;52.38;47.24;63.39;;
68599;Laerm;18038;50.166;18.908;2023-04-25T10:14:41;52.14;47.23;62.92;;
68599;Laerm;18038;50.166;18.908;2023-04-25T10:17:50;53.56;46.91;63.24;;
68599;Laerm;18038;50.166;18.908;2023-04-25T10:21:00;51.66;47.37;58.53;;
68599;Laerm;18038;50.166;18.908;2023-04-25T10:24:08;52.53;47.38;62.11;;
68599;Laerm;18038;50.166;18.908;2023-04-25T10:27:16;52.33;47.17;62.96;;
68599;Laerm;18038;50.166;18.908;2023-04-25T10:30:26;51.76;47.10;59.90;;
68599;Laerm;18038;50.166;18.908;2023-04-25T10:33:37;51.91;47.08;58.95;;
68599;Laerm;18038;50.166;18.908;2023-04-25T10:36:51;51.99;47.38;70.58;;
68599;Laerm;18038;50.166;18.908;2023-04-25T10:40:09;52.57;47.18;60.70;;
68599;Laerm;18038;50.166;18.908;2023-04-25T10:43:36;52.64;47.14;61.83;;
68599;Laerm;18038;50.166;18.908;2023-04-25T10:46:45;52.81;47.54;63.78;;
68599;Laerm;18038;50.166;18.908;2023-04-25T10:49:52;52.42;47.26;63.14;;
68599;Laerm;18038;50.166;18.908;2023-04-25T10:53:15;51.42;47.32;60.24;;
68599;Laerm;18038;50.166;18.908;2023-04-25T10:56:23;51.49;47.26;66.15;;
68599;Laerm;18038;50.166;18.908;2023-04-25T10:59:31;51.54;47.02;63.23;;
68599;Laerm;18038;50.166;18.908;2023-04-25T11:02:48;53.11;47.74;65.98;;
68599;Laerm;18038;50.166;18.908;2023-04-25T11:05:57;51.65;47.15;59.90;;
68599;Laerm;18038;50.166;18.908;2023-04-25T11:09:12;52.91;47.76;67.76;;
68599;Laerm;18038;50.166;18.908;2023-04-25T11:12:18;52.94;46.88;64.94;;
68599;Laerm;18038;50.166;18.908;2023-04-25T11:15:26;51.63;47.00;60.16;;
68599;Laerm;18038;50.166;18.908;2023-04-25T11:18:41;52.89;47.09;64.08;;
68599;Laerm;18038;50.166;18.908;2023-04-25T11:21:48;51.65;47.03;65.60;;
68599;Laerm;18038;50.166;18.908;2023-04-25T11:24:54;53.47;47.36;61.29;;
68599;Laerm;18038;50.166;18.908;2023-04-25T11:28:01;52.64;46.98;63.51;;
68599;Laerm;18038;50.166;18.908;2023-04-25T11:31:07;52.26;47.20;59.08;;
68599;Laerm;18038;50.166;18.908;2023-04-25T11:34:19;52.89;47.12;64.05;;
68599;Laerm;18038;50.166;18.908;2023-04-25T11:37:26;52.24;47.38;67.06;;
68599;Laerm;18038;50.166;18.908;2023-04-25T11:40:33;53.43;46.77;69.80;;
68599;Laerm;18038;50.166;18.908;2023-04-25T11:43:39;51.73;47.23;62.73;;
68599;Laerm;18038;50.166;18.908;2023-04-25T11:46:47;52.30;47.37;62.99;;
68599;Laerm;18038;50.166;18.908;2023-04-25T11:49:57;52.55;47.61;62.51;;
68599;Laerm;18038;50.166;18.908;2023-04-25T11:53:04;52.69;46.99;73.39;;
68599;Laerm;18038;50.166;18.908;2023-04-25T11:56:12;52.03;47.09;60.44;;
68599;Laerm;18038;50.166;18.908;2023-04-25T11:59:24;52.54;47.42;61.46;;
68599;Laerm;18038;50.166;18.908;2023-04-25T12:02:31;52.32;47.02;59.49;;
68599;Laerm;18038;50.166;18.908;2023-04-25T12:05:41;52.94;47.09;61.39;;
68599;Laerm;18038;50.166;18.908;2023-04-25T12:09:02;52.52;47.35;61.33;;
68599;Laerm;18038;50.166;18.908;2023-04-25T12:12:10;52.17;46.96;59.50;;
68599;Laerm;18038;50.166;18.908;2023-04-25T12:15:24;53.27;47.40;59.93;;
68599;Laerm;18038;50.166;18.908;2023-04-25T12:18:31;52.72;47.79;59.82;;
68599;Laerm;18038;50.166;18.908;2023-04-25T12:21:47;53.38;47.32;66.89;;
68599;Laerm;18038;50.166;18.908;2023-04-25T12:25:02;54.40;47.98;72.88;;
68599;Laerm;18038;50.166;18.908;2023-04-25T12:28:12;51.57;46.67;57.67;;
68599;Laerm;18038;50.166;18.908;2023-04-25T12:31:20;52.86;47.06;63.63;;
68599;Laerm;18038;50.166;18.908;2023-04-25T12:34:26;53.32;47.53;60.33;;
68599;Laerm;18038;50.166;18.908;2023-04-25T12:37:39;52.69;47.68;59.46;;
68599;Laerm;18038;50.166;18.908;2023-04-25T12:40:45;52.91;46.96;63.91;;
68599;Laerm;18038;50.166;18.908;2023-04-25T12:43:52;52.88;47.11;60.09;;
68599;Laerm;18038;50.166;18.908;2023-04-25T12:46:58;52.15;46.91;59.74;;
68599;Laerm;18038;50.166;18.908;2023-04-25T12:50:07;53.68;47.69;71.15;;
68599;Laerm;18038;50.166;18.908;2023-04-25T12:53:16;54.31;47.29;66.90;;
68599;Laerm;18038;50.166;18.908;2023-04-25T12:56:23;52.53;47.71;60.15;;
68599;Laerm;18038;50.166;18.908;2023-04-25T12:59:29;53.16;47.09;65.49;;
68599;Laerm;18038;50.166;18.908;2023-04-25T13:02:42;53.02;47.62;70.32;;
68599;Laerm;18038;50.166;18.908;2023-04-25T13:05:50;53.68;47.64;69.83;;
68599;Laerm;18038;50.166;18.908;2023-04-25T13:09:00;54.26;47.42;66.28;;
68599;Laerm;18038;50.166;18.908;2023-04-25T13:12:07;52.61;47.61;61.72;;
68599;Laerm;18038;50.166;18.908;2023-04-25T13:15:14;53.62;47.35;60.68;;
68599;Laerm;18038;50.166;18.908;2023-04-25T13:18:21;52.44;46.87;64.45;;
68599;Laerm;18038;50.166;18.908;2023-04-25T13:21:31;53.03;47.54;63.58;;
68599;Laerm;18038;50.166;18.908;2023-04-25T13:24:40;54.42;47.28;66.23;;
68599;Laerm;18038;50.166;18.908;2023-04-25T13:27:47;53.32;47.82;61.63;;
68599;Laerm;18038;50.166;18.908;2023-04-25T13:30:54;52.69;47.24;61.83;;
68599;Laerm;18038;50.166;18.908;2023-04-25T13:34:01;53.64;47.18;62.53;;
68599;Laerm;18038;50.166;18.908;2023-04-25T13:37:07;52.63;47.32;63.96;;
68599;Laerm;18038;50.166;18.908;2023-04-25T13:40:24;51.51;47.59;63.23;;
68599;Laerm;18038;50.166;18.908;2023-04-25T13:43:37;51.76;47.13;69.57;;
68599;Laerm;18038;50.166;18.908;2023-04-25T13:46:46;52.48;46.93;66.91;;
68599;Laerm;18038;50.166;18.908;2023-04-25T13:49:53;53.18;47.53;63.51;;
68599;Laerm;18038;50.166;18.908;2023-04-25T13:53:10;52.99;47.28;66.66;;
68599;Laerm;18038;50.166;18.908;2023-04-25T13:56:20;53.54;47.08;67.60;;
68599;Laerm;18038;50.166;18.908;2023-04-25T13:59:27;51.88;47.27;62.36;;
68599;Laerm;18038;50.166;18.908;2023-04-25T14:02:37;56.01;47.11;83.76;;
68599;Laerm;18038;50.166;18.908;2023-04-25T14:05:44;54.94;46.94;75.41;;
68599;Laerm;18038;50.166;18.908;2023-04-25T14:08:50;56.57;47.29;76.49;;
68599;Laerm;18038;50.166;18.908;2023-04-25T14:11:59;54.34;47.80;76.37;;
68599;Laerm;18038;50.166;18.908;2023-04-25T14:15:13;52.79;47.34;64.67;;
68599;Laerm;18038;50.166;18.908;2023-04-25T14:18:21;53.25;47.35;63.24;;
68599;Laerm;18038;50.166;18.908;2023-04-25T14:21:27;53.41;47.32;63.17;;
68599;Laerm;18038;50.166;18.908;2023-04-25T14:24:35;53.14;46.97;68.54;;
68599;Laerm;18038;50.166;18.908;2023-04-25T14:27:44;51.85;46.79;64.69;;
68599;Laerm;18038;50.166;18.908;2023-04-25T14:30:53;52.80;47.28;62.70;;
68599;Laerm;18038;50.166;18.908;2023-04-25T14:34:00;52.60;46.91;62.79;;
68599;Laerm;18038;50.166;18.908;2023-04-25T14:37:07;52.99;47.56;61.24;;
68599;Laerm;18038;50.166;18.908;2023-04-25T14:40:13;52.91;47.17;68.32;;
68599;Laerm;18038;50.166;18.908;2023-04-25T14:43:23;52.18;47.48;63.28;;
68599;Laerm;18038;50.166;18.908;2023-04-25T14:46:29;52.52;47.12;66.11;;
68599;Laerm;18038;50.166;18.908;2023-04-25T14:49:36;52.48;46.78;59.69;;
68599;Laerm;18038;50.166;18.908;2023-04-25T14:52:42;53.29;47.14;60.17;;
68599;Laerm;18038;50.166;18.908;2023-04-25T14:55:49;53.51;48.11;62.63;;
68599;Laerm;18038;50.166;18.908;2023-04-25T14:58:58;52.79;47.32;63.23;;
68599;Laerm;18038;50.166;18.908;2023-04-25T15:02:06;53.14;47.09;61.84;;
68599;Laerm;18038;50.166;18.908;2023-04-25T15:05:12;53.98;46.94;65.67;;
68599;Laerm;18038;50.166;18.908;2023-04-25T15:08:19;52.32;46.91;61.30;;
68599;Laerm;18038;50.166;18.908;2023-04-25T15:11:25;52.42;47.20;61.54;;
68599;Laerm;18038;50.166;18.908;2023-04-25T15:14:34;52.63;47.49;69.72;;
68599;Laerm;18038;50.166;18.908;2023-04-25T15:17:42;52.00;46.92;65.58;;
68599;Laerm;18038;50.166;18.908;2023-04-25T15:20:49;53.45;46.90;71.27;;
68599;Laerm;18038;50.166;18.908;2023-04-25T15:23:55;52.31;47.53;58.28;;
68599;Laerm;18038;50.166;18.908;2023-04-25T15:27:02;51.66;46.40;59.96;;
68599;Laerm;18038;50.166;18.908;2023-04-25T15:30:14;52.25;46.68;63.00;;
68599;Laerm;18038;50.166;18.908;2023-04-25T15:33:21;52.12;47.62;62.18;;
68599;Laerm;18038;50.166;18.908;2023-04-25T15:36:27;52.74;47.86;60.20;;
68599;Laerm;18038;50.166;18.908;2023-04-25T15:39:34;52.30;46.93;59.95;;
68599;Laerm;18038;50.166;18.908;2023-04-25T15:42:49;54.85;47.67;71.93;;
68599;Laerm;18038;50.166;18.908;2023-04-25T15:46:00;54.88;47.33;64.23;;
68599;Laerm;18038;50.166;18.908;2023-04-25T15:49:06;51.11;46.54;58.58;;
68599;Laerm;18038;50.166;18.908;2023-04-25T15:52:16;52.20;47.11;59.94;;
68599;Laerm;18038;50.166;18.908;2023-04-25T15:55:26;53.34;47.23;63.94;;
68599;Laerm;18038;50.166;18.908;2023-04-25T15:58:33;51.43;46.83;60.30;;
68599;Laerm;18038;50.166;18.908;2023-04-25T16:01:42;52.02;46.98;60.16;;
68599;Laerm;18038;50.166;18.908;2023-04-25T16:04:49;51.57;46.87;59.76;;
68599;Laerm;18038;50.166;18.908;2023-04-25T16:07:55;52.54;46.87;60.92;;
68599;Laerm;18038;50.166;18.908;2023-04-25T16:11:03;52.18;46.51;59.19;;
68599;Laerm;18038;50.166;18.908;2023-04-25T16:14:09;51.43;46.71;59.38;;
68599;Laerm;18038;50.166;18.908;2023-04-25T16:17:18;52.42;46.53;61.32;;
68599;Laerm;18038;50.166;18.908;2023-04-25T16:20:24;52.12;46.91;60.41;;
68599;Laerm;18038;50.166;18.908;2023-04-25T16:23:32;52.38;46.75;61.74;;
68599;Laerm;18038;50.166;18.908;2023-04-25T16:26:38;51.89;46.78;59.86;;
68599;Laerm;18038;50.166;18.908;2023-04-25T16:29:46;51.45;47.02;65.88;;
68599;Laerm;18038;50.166;18.908;2023-04-25T16:32:56;51.34;46.78;59.71;;
68599;Laerm;18038;50.166;18.908;2023-04-25T16:36:03;52.41;46.95;63.73;;
68599;Laerm;18038;50.166;18.908;2023-04-25T16:39:10;52.51;46.79;64.39;;
68599;Laerm;18038;50.166;18.908;2023-04-25T16:42:16;53.03;46.64;66.37;;
68599;Laerm;18038;50.166;18.908;2023-04-25T16:45:25;52.35;46.93;66.58;;
68599;Laerm;18038;50.166;18.908;2023-04-25T16:48:34;52.74;46.71;65.18;;
68599;Laerm;18038;50.166;18.908;2023-04-25T16:51:40;50.88;46.72;65.06;;
68599;Laerm;18038;50.166;18.908;2023-04-25T16:54:48;51.46;46.62;58.67;;
68599;Laerm;18038;50.166;18.908;2023-04-25T16:57:54;51.21;46.58;60.13;;
68599;Laerm;18038;50.166;18.908;2023-04-25T17:01:01;51.63;46.76;59.67;;
68599;Laerm;18038;50.166;18.908;2023-04-25T17:04:11;51.74;46.69;64.09;;
68599;Laerm;18038;50.166;18.908;2023-04-25T17:07:18;53.29;46.74;66.27;;
68599;Laerm;18038;50.166;18.908;2023-04-25T17:10:27;51.77;46.54;64.12;;
68599;Laerm;18038;50.166;18.908;2023-04-25T17:13:34;51.28;46.52;59.42;;
68599;Laerm;18038;50.166;18.908;2023-04-25T17:16:40;50.18;46.54;56.99;;
68599;Laerm;18038;50.166;18.908;2023-04-25T17:19:50;52.01;46.27;59.65;;
68599;Laerm;18038;50.166;18.908;2023-04-25T17:23:00;51.33;46.53;60.61;;
68599;Laerm;18038;50.166;18.908;2023-04-25T17:26:08;51.35;46.96;59.50;;
68599;Laerm;18038;50.166;18.908;2023-04-25T17:29:14;51.34;46.41;63.12;;
68599;Laerm;18038;50.166;18.908;2023-04-25T17:32:22;50.36;46.09;62.15;;